sensor_id;sensor_type;location;lat;lon;timestamp;temperature;humidity
14709;DHT22;7445;50.774;4.944;2023-09-12T06:17:03;19.40;1.00
14709;DHT22;7445;50.774;4.944;2023-09-12T06:19:29;19.40;14.90
14709;DHT22;7445;50.774;4.944;2023-09-12T06:21:54;19.40;1.00
14709;DHT22;7445;50.774;4.944;2023-09-12T06:24:21;19.50;1.00
14709;DHT22;7445;50.774;4.944;2023-09-12T06:26:47;19.50;1.00
14709;DHT22;7445;50.774;4.944;2023-09-12T06:29:13;19.60;1.00
14709;DHT22;7445;50.774;4.944;2023-09-12T06:31:39;19.60;1.00
14709;DHT22;7445;50.774;4.944;2023-09-12T06:34:07;19.70;1.00
14709;DHT22;7445;50.774;4.944;2023-09-12T06:36:33;19.70;1.00
14709;DHT22;7445;50.774;4.944;2023-09-12T06:38:59;19.70;1.00
14709;DHT22;7445;50.774;4.944;2023-09-12T06:41:26;19.70;1.00
14709;DHT22;7445;50.774;4.944;2023-09-12T06:43:52;19.80;1.00
14709;DHT22;7445;50.774;4.944;2023-09-12T06:46:18;19.90;1.00
14709;DHT22;7445;50.774;4.944;2023-09-12T06:48:45;20.00;1.00
14709;DHT22;7445;50.774;4.944;2023-09-12T06:51:11;20.00;1.00
14709;DHT22;7445;50.774;4.944;2023-09-12T06:53:37;20.10;1.00
14709;DHT22;7445;50.774;4.944;2023-09-12T06:56:05;20.30;99.90
14709;DHT22;7445;50.774;4.944;2023-09-12T06:58:30;20.30;99.90
14709;DHT22;7445;50.774;4.944;2023-09-12T07:00:56;20.40;99.90
14709;DHT22;7445;50.774;4.944;2023-09-12T07:03:26;20.40;99.90
14709;DHT22;7445;50.774;4.944;2023-09-12T07:05:52;20.40;99.90
14709;DHT22;7445;50.774;4.944;2023-09-12T07:08:17;20.50;99.90
14709;DHT22;7445;50.774;4.944;2023-09-12T07:10:46;20.50;99.90
14709;DHT22;7445;50.774;4.944;2023-09-12T07:13:12;20.60;99.90
14709;DHT22;7445;50.774;4.944;2023-09-12T07:15:38;20.70;99.90
14709;DHT22;7445;50.774;4.944;2023-09-12T07:18:04;20.80;99.90
14709;DHT22;7445;50.774;4.944;2023-09-12T07:20:33;20.90;41.00
14709;DHT22;7445;50.774;4.944;2023-09-12T07:22:59;21.00;1.00
14709;DHT22;7445;50.774;4.944;2023-09-12T07:25:24;21.00;1.00
14709;DHT22;7445;50.774;4.944;2023-09-12T07:27:50;21.20;1.00
14709;DHT22;7445;50.774;4.944;2023-09-12T07:30:16;21.30;1.00
14709;DHT22;7445;50.774;4.944;2023-09-12T07:32:42;21.50;1.00
14709;DHT22;7445;50.774;4.944;2023-09-12T07:35:08;21.40;99.90
14709;DHT22;7445;50.774;4.944;2023-09-12T07:37:34;21.50;99.90
14709;DHT22;7445;50.774;4.944;2023-09-12T07:40:00;21.60;99.90
14709;DHT22;7445;50.774;4.944;2023-09-12T07:42:26;21.60;99.90
14709;DHT22;7445;50.774;4.944;2023-09-12T07:44:51;21.70;99.90
14709;DHT22;7445;50.774;4.944;2023-09-12T07:47:18;21.60;99.90
14709;DHT22;7445;50.774;4.944;2023-09-12T07:49:43;21.60;99.90
14709;DHT22;7445;50.774;4.944;2023-09-12T07:52:09;21.70;99.90
14709;DHT22;7445;50.774;4.944;2023-09-12T07:54:35;21.70;99.90
14709;DHT22;7445;50.774;4.944;2023-09-12T07:57:02;21.70;91.30
14709;DHT22;7445;50.774;4.944;2023-09-12T07:59:28;21.60;1.00
14709;DHT22;7445;50.774;4.944;2023-09-12T08:01:54;21.60;1.00
14709;DHT22;7445;50.774;4.944;2023-09-12T08:04:19;21.50;1.00
14709;DHT22;7445;50.774;4.944;2023-09-12T08:06:45;21.50;1.00
14709;DHT22;7445;50.774;4.944;2023-09-12T08:09:11;21.60;1.00
14709;DHT22;7445;50.774;4.944;2023-09-12T08:11:37;21.70;1.00
14709;DHT22;7445;50.774;4.944;2023-09-12T08:14:02;21.90;99.90
14709;DHT22;7445;50.774;4.944;2023-09-12T08:16:28;22.10;1.00
14709;DHT22;7445;50.774;4.944;2023-09-12T08:18:53;22.20;99.90
14709;DHT22;7445;50.774;4.944;2023-09-12T08:21:19;22.20;99.90
14709;DHT22;7445;50.774;4.944;2023-09-12T08:23:45;22.20;1.00
14709;DHT22;7445;50.774;4.944;2023-09-12T08:26:11;22.20;99.90
14709;DHT22;7445;50.774;4.944;2023-09-12T08:28:36;22.30;99.90
14709;DHT22;7445;50.774;4.944;2023-09-12T08:31:02;22.40;99.90
14709;DHT22;7445;50.774;4.944;2023-09-12T08:33:28;22.60;1.00
14709;DHT22;7445;50.774;4.944;2023-09-12T08:35:53;22.80;1.00
14709;DHT22;7445;50.774;4.944;2023-09-12T08:38:20;23.00;99.90
14709;DHT22;7445;50.774;4.944;2023-09-12T08:40:50;23.30;99.90
14709;DHT22;7445;50.774;4.944;2023-09-12T08:43:17;23.50;99.90
14709;DHT22;7445;50.774;4.944;2023-09-12T08:45:42;23.50;99.90
14709;DHT22;7445;50.774;4.944;2023-09-12T08:48:11;23.50;1.00
14709;DHT22;7445;50.774;4.944;2023-09-12T08:50:38;23.30;99.90
14709;DHT22;7445;50.774;4.944;2023-09-12T08:53:04;23.20;57.50
14709;DHT22;7445;50.774;4.944;2023-09-12T08:55:31;23.10;1.00
14709;DHT22;7445;50.774;4.944;2023-09-12T08:57:59;23.10;1.00
14709;DHT22;7445;50.774;4.944;2023-09-12T09:00:25;23.30;1.00
14709;DHT22;7445;50.774;4.944;2023-09-12T09:02:52;23.30;1.00
14709;DHT22;7445;50.774;4.944;2023-09-12T09:05:21;23.60;1.00
14709;DHT22;7445;50.774;4.944;2023-09-12T09:07:48;23.70;99.90
14709;DHT22;7445;50.774;4.944;2023-09-12T09:10:16;23.30;1.00
14709;DHT22;7445;50.774;4.944;2023-09-12T09:12:44;23.30;99.90
14709;DHT22;7445;50.774;4.944;2023-09-12T09:15:29;23.30;99.90
14709;DHT22;7445;50.774;4.944;2023-09-12T09:17:58;23.30;1.00
14709;DHT22;7445;50.774;4.944;2023-09-12T09:20:32;23.30;99.90
14709;DHT22;7445;50.774;4.944;2023-09-12T09:23:05;23.40;99.90
14709;DHT22;7445;50.774;4.944;2023-09-12T09:25:41;23.50;83.90
14709;DHT22;7445;50.774;4.944;2023-09-12T09:28:36;23.80;1.00
14709;DHT22;7445;50.774;4.944;2023-09-12T09:31:02;24.40;99.90
14709;DHT22;7445;50.774;4.944;2023-09-12T09:33:35;24.70;90.80
14709;DHT22;7445;50.774;4.944;2023-09-12T09:36:05;24.40;99.90
14709;DHT22;7445;50.774;4.944;2023-09-12T09:38:31;24.60;1.00
14709;DHT22;7445;50.774;4.944;2023-09-12T09:40:59;24.60;1.00
14709;DHT22;7445;50.774;4.944;2023-09-12T09:43:24;24.60;99.90
14709;DHT22;7445;50.774;4.944;2023-09-12T09:45:50;24.70;99.60
14709;DHT22;7445;50.774;4.944;2023-09-12T09:48:24;24.70;99.90
14709;DHT22;7445;50.774;4.944;2023-09-12T09:50:53;24.80;1.00
14709;DHT22;7445;50.774;4.944;2023-09-12T09:53:31;25.00;1.00
14709;DHT22;7445;50.774;4.944;2023-09-12T09:56:15;25.00;99.90
14709;DHT22;7445;50.774;4.944;2023-09-12T09:58:48;24.70;1.00
14709;DHT22;7445;50.774;4.944;2023-09-12T10:01:22;24.80;99.90
14709;DHT22;7445;50.774;4.944;2023-09-12T10:03:50;25.10;99.90
14709;DHT22;7445;50.774;4.944;2023-09-12T10:06:17;25.30;99.90
14709;DHT22;7445;50.774;4.944;2023-09-12T10:08:50;25.60;99.90
14709;DHT22;7445;50.774;4.944;2023-09-12T10:11:18;25.80;99.90
14709;DHT22;7445;50.774;4.944;2023-09-12T10:13:56;26.10;99.90
14709;DHT22;7445;50.774;4.944;2023-09-12T10:16:30;26.20;99.90
14709;DHT22;7445;50.774;4.944;2023-09-12T10:21:34;26.10;1.00
14709;DHT22;7445;50.774;4.944;2023-09-12T10:24:03;25.90;1.00
14709;DHT22;7445;50.774;4.944;2023-09-12T10:26:31;25.90;1.00
14709;DHT22;7445;50.774;4.944;2023-09-12T10:28:57;25.80;1.00
14709;DHT22;7445;50.774;4.944;2023-09-12T10:31:24;25.90;1.00
14709;DHT22;7445;50.774;4.944;2023-09-12T10:33:50;26.20;1.00
14709;DHT22;7445;50.774;4.944;2023-09-12T10:36:17;26.30;1.00
14709;DHT22;7445;50.774;4.944;2023-09-12T10:38:48;26.40;1.00
14709;DHT22;7445;50.774;4.944;2023-09-12T10:41:15;26.40;1.00
14709;DHT22;7445;50.774;4.944;2023-09-12T10:43:42;26.20;1.00
14709;DHT22;7445;50.774;4.944;2023-09-12T10:46:09;26.20;1.00
14709;DHT22;7445;50.774;4.944;2023-09-12T10:48:35;26.10;1.00
14709;DHT22;7445;50.774;4.944;2023-09-12T10:51:02;26.10;1.00
14709;DHT22;7445;50.774;4.944;2023-09-12T10:53:31;26.10;1.00
14709;DHT22;7445;50.774;4.944;2023-09-12T10:56:20;26.40;1.00
14709;DHT22;7445;50.774;4.944;2023-09-12T11:01:34;26.80;99.90
14709;DHT22;7445;50.774;4.944;2023-09-12T11:06:45;26.90;99.90
14709;DHT22;7445;50.774;4.944;2023-09-12T11:11:54;26.70;99.90
14709;DHT22;7445;50.774;4.944;2023-09-12T11:14:20;26.80;99.90
14709;DHT22;7445;50.774;4.944;2023-09-12T11:19:47;27.10;99.90
14709;DHT22;7445;50.774;4.944;2023-09-12T11:22:31;27.50;99.90
14709;DHT22;7445;50.774;4.944;2023-09-12T11:25:00;27.80;99.90
14709;DHT22;7445;50.774;4.944;2023-09-12T11:30:15;28.20;31.40
14709;DHT22;7445;50.774;4.944;2023-09-12T11:32:45;28.10;22.80
14709;DHT22;7445;50.774;4.944;2023-09-12T11:35:13;28.30;61.90
14709;DHT22;7445;50.774;4.944;2023-09-12T11:37:47;28.20;43.50
14709;DHT22;7445;50.774;4.944;2023-09-12T11:42:43;27.70;23.30
14709;DHT22;7445;50.774;4.944;2023-09-12T11:45:09;27.70;71.20
14709;DHT22;7445;50.774;4.944;2023-09-12T11:47:46;28.00;16.50
14709;DHT22;7445;50.774;4.944;2023-09-12T11:50:33;28.30;53.70
14709;DHT22;7445;50.774;4.944;2023-09-12T11:53:25;28.50;18.80
14709;DHT22;7445;50.774;4.944;2023-09-12T11:55:57;28.30;1.00
14709;DHT22;7445;50.774;4.944;2023-09-12T11:58:29;28.40;1.00
14709;DHT22;7445;50.774;4.944;2023-09-12T12:00:57;28.30;1.00
14709;DHT22;7445;50.774;4.944;2023-09-12T12:03:25;28.10;9.70
14709;DHT22;7445;50.774;4.944;2023-09-12T12:06:11;28.00;16.90
14709;DHT22;7445;50.774;4.944;2023-09-12T12:08:45;27.40;99.90
14709;DHT22;7445;50.774;4.944;2023-09-12T12:11:29;26.80;99.90
14709;DHT22;7445;50.774;4.944;2023-09-12T12:13:57;26.50;1.00
14709;DHT22;7445;50.774;4.944;2023-09-12T12:16:26;26.30;99.90
14709;DHT22;7445;50.774;4.944;2023-09-12T12:18:52;26.70;99.90
14709;DHT22;7445;50.774;4.944;2023-09-12T12:21:22;27.00;99.90
14709;DHT22;7445;50.774;4.944;2023-09-12T12:23:58;27.40;99.90
14709;DHT22;7445;50.774;4.944;2023-09-12T12:26:25;27.70;21.20
14709;DHT22;7445;50.774;4.944;2023-09-12T12:28:59;27.80;99.50
14709;DHT22;7445;50.774;4.944;2023-09-12T12:31:50;27.80;1.00
14709;DHT22;7445;50.774;4.944;2023-09-12T12:34:22;28.10;1.00
14709;DHT22;7445;50.774;4.944;2023-09-12T12:36:48;28.40;1.00
14709;DHT22;7445;50.774;4.944;2023-09-12T12:39:14;28.50;1.00
14709;DHT22;7445;50.774;4.944;2023-09-12T12:41:40;28.30;1.00
14709;DHT22;7445;50.774;4.944;2023-09-12T12:44:07;28.60;1.00
14709;DHT22;7445;50.774;4.944;2023-09-12T12:46:33;28.80;1.00
14709;DHT22;7445;50.774;4.944;2023-09-12T12:49:00;28.40;1.00
14709;DHT22;7445;50.774;4.944;2023-09-12T12:51:28;28.00;1.00
14709;DHT22;7445;50.774;4.944;2023-09-12T12:54:03;27.30;1.00
14709;DHT22;7445;50.774;4.944;2023-09-12T12:56:30;27.00;99.90
14709;DHT22;7445;50.774;4.944;2023-09-12T12:58:57;26.80;99.90
14709;DHT22;7445;50.774;4.944;2023-09-12T13:01:25;26.70;99.90
14709;DHT22;7445;50.774;4.944;2023-09-12T13:03:51;27.10;70.00
14709;DHT22;7445;50.774;4.944;2023-09-12T13:06:17;27.60;1.00
14709;DHT22;7445;50.774;4.944;2023-09-12T13:08:45;27.90;99.90
14709;DHT22;7445;50.774;4.944;2023-09-12T13:11:17;28.00;20.40
14709;DHT22;7445;50.774;4.944;2023-09-12T13:13:46;28.00;1.00
14709;DHT22;7445;50.774;4.944;2023-09-12T13:16:26;27.90;1.00
14709;DHT22;7445;50.774;4.944;2023-09-12T13:21:47;28.10;1.00
14709;DHT22;7445;50.774;4.944;2023-09-12T13:24:14;28.30;1.00
14709;DHT22;7445;50.774;4.944;2023-09-12T13:26:40;28.50;99.90
14709;DHT22;7445;50.774;4.944;2023-09-12T13:29:06;28.60;1.00
14709;DHT22;7445;50.774;4.944;2023-09-12T13:31:31;28.60;1.00
14709;DHT22;7445;50.774;4.944;2023-09-12T13:33:57;28.30;1.00
14709;DHT22;7445;50.774;4.944;2023-09-12T13:36:35;28.40;1.00
14709;DHT22;7445;50.774;4.944;2023-09-12T13:44:36;27.90;1.00
14709;DHT22;7445;50.774;4.944;2023-09-12T13:47:44;27.70;1.00
14709;DHT22;7445;50.774;4.944;2023-09-12T13:50:13;27.70;1.00
14709;DHT22;7445;50.774;4.944;2023-09-12T13:52:52;27.60;1.00
14709;DHT22;7445;50.774;4.944;2023-09-12T13:55:23;28.00;1.00
14709;DHT22;7445;50.774;4.944;2023-09-12T13:58:24;28.20;1.00
14709;DHT22;7445;50.774;4.944;2023-09-12T14:00:57;28.20;1.00
14709;DHT22;7445;50.774;4.944;2023-09-12T14:06:38;27.80;1.00
14709;DHT22;7445;50.774;4.944;2023-09-12T14:09:24;27.60;1.00
14709;DHT22;7445;50.774;4.944;2023-09-12T14:12:02;27.60;1.00
14709;DHT22;7445;50.774;4.944;2023-09-12T14:15:32;27.60;1.00
14709;DHT22;7445;50.774;4.944;2023-09-12T14:33:02;27.00;99.90
14709;DHT22;7445;50.774;4.944;2023-09-12T14:35:41;27.10;1.00
14709;DHT22;7445;50.774;4.944;2023-09-12T14:38:09;26.90;99.90
14709;DHT22;7445;50.774;4.944;2023-09-12T14:40:35;26.90;99.90
14709;DHT22;7445;50.774;4.944;2023-09-12T14:43:01;26.90;99.90
14709;DHT22;7445;50.774;4.944;2023-09-12T14:45:28;26.90;99.90
14709;DHT22;7445;50.774;4.944;2023-09-12T14:47:54;27.00;99.90
14709;DHT22;7445;50.774;4.944;2023-09-12T14:50:21;26.90;99.90
14709;DHT22;7445;50.774;4.944;2023-09-12T14:52:50;27.00;99.90
14709;DHT22;7445;50.774;4.944;2023-09-12T14:55:15;26.80;99.90
14709;DHT22;7445;50.774;4.944;2023-09-12T14:57:42;26.60;99.90
14709;DHT22;7445;50.774;4.944;2023-09-12T15:00:08;26.50;1.00
14709;DHT22;7445;50.774;4.944;2023-09-12T15:02:34;26.50;1.00
14709;DHT22;7445;50.774;4.944;2023-09-12T15:05:04;26.40;1.00
14709;DHT22;7445;50.774;4.944;2023-09-12T15:07:30;26.40;99.90
14709;DHT22;7445;50.774;4.944;2023-09-12T15:09:56;26.30;99.90
14709;DHT22;7445;50.774;4.944;2023-09-12T15:12:22;26.20;99.90
14709;DHT22;7445;50.774;4.944;2023-09-12T15:14:50;26.10;99.90
14709;DHT22;7445;50.774;4.944;2023-09-12T15:17:17;26.00;1.00
14709;DHT22;7445;50.774;4.944;2023-09-12T15:19:43;25.90;1.00
14709;DHT22;7445;50.774;4.944;2023-09-12T15:22:09;25.70;1.00
14709;DHT22;7445;50.774;4.944;2023-09-12T15:24:34;25.40;1.00
14709;DHT22;7445;50.774;4.944;2023-09-12T15:27:00;25.20;40.20
14709;DHT22;7445;50.774;4.944;2023-09-12T15:29:26;25.10;99.90
14709;DHT22;7445;50.774;4.944;2023-09-12T15:31:53;24.90;99.90
14709;DHT22;7445;50.774;4.944;2023-09-12T15:34:19;24.70;1.00
14709;DHT22;7445;50.774;4.944;2023-09-12T15:36:46;24.50;99.90
14709;DHT22;7445;50.774;4.944;2023-09-12T15:39:12;24.40;1.00
14709;DHT22;7445;50.774;4.944;2023-09-12T15:41:39;24.20;9.90
14709;DHT22;7445;50.774;4.944;2023-09-12T15:44:04;24.10;98.20
14709;DHT22;7445;50.774;4.944;2023-09-12T15:46:31;23.90;99.90
14709;DHT22;7445;50.774;4.944;2023-09-12T15:48:57;23.80;99.90
14709;DHT22;7445;50.774;4.944;2023-09-12T15:51:23;23.70;99.90
14709;DHT22;7445;50.774;4.944;2023-09-12T15:53:49;23.60;1.00
14709;DHT22;7445;50.774;4.944;2023-09-12T15:56:15;23.50;1.00
14709;DHT22;7445;50.774;4.944;2023-09-12T15:58:40;23.30;1.00
14709;DHT22;7445;50.774;4.944;2023-09-12T16:01:06;23.10;99.90
14709;DHT22;7445;50.774;4.944;2023-09-12T16:03:32;22.90;99.90
14709;DHT22;7445;50.774;4.944;2023-09-12T16:05:58;22.70;1.00
14709;DHT22;7445;50.774;4.944;2023-09-12T16:08:23;22.60;99.90
14709;DHT22;7445;50.774;4.944;2023-09-12T16:10:49;22.50;99.90
14709;DHT22;7445;50.774;4.944;2023-09-12T16:13:16;22.50;99.90
14709;DHT22;7445;50.774;4.944;2023-09-12T16:15:41;22.40;1.00
14709;DHT22;7445;50.774;4.944;2023-09-12T16:18:07;22.30;1.00
14709;DHT22;7445;50.774;4.944;2023-09-12T16:20:33;22.40;27.90
14709;DHT22;7445;50.774;4.944;2023-09-12T16:22:58;22.30;1.00
14709;DHT22;7445;50.774;4.944;2023-09-12T16:25:24;22.20;1.00
14709;DHT22;7445;50.774;4.944;2023-09-12T16:27:50;22.10;99.90
14709;DHT22;7445;50.774;4.944;2023-09-12T16:30:16;22.10;99.90
14709;DHT22;7445;50.774;4.944;2023-09-12T16:32:42;22.20;1.00
14709;DHT22;7445;50.774;4.944;2023-09-12T16:35:08;22.20;99.90
14709;DHT22;7445;50.774;4.944;2023-09-12T16:37:34;22.10;1.00
14709;DHT22;7445;50.774;4.944;2023-09-12T16:40:00;22.00;1.00
14709;DHT22;7445;50.774;4.944;2023-09-12T16:42:26;22.10;1.00
14709;DHT22;7445;50.774;4.944;2023-09-12T16:44:52;22.10;99.90
14709;DHT22;7445;50.774;4.944;2023-09-12T16:47:18;22.10;1.00
14709;DHT22;7445;50.774;4.944;2023-09-12T16:49:45;22.10;1.00
14709;DHT22;7445;50.774;4.944;2023-09-12T16:52:11;22.10;1.00
14709;DHT22;7445;50.774;4.944;2023-09-12T16:54:38;22.00;1.00
14709;DHT22;7445;50.774;4.944;2023-09-12T16:57:05;21.90;1.00
14709;DHT22;7445;50.774;4.944;2023-09-12T16:59:33;21.80;1.00
14709;DHT22;7445;50.774;4.944;2023-09-12T17:01:59;21.70;1.00
14709;DHT22;7445;50.774;4.944;2023-09-12T17:04:24;21.80;99.90
14709;DHT22;7445;50.774;4.944;2023-09-12T17:06:50;21.70;1.00
14709;DHT22;7445;50.774;4.944;2023-09-12T17:09:16;21.80;1.00
14709;DHT22;7445;50.774;4.944;2023-09-12T17:11:42;21.80;99.90
14709;DHT22;7445;50.774;4.944;2023-09-12T17:14:08;21.80;1.00
14709;DHT22;7445;50.774;4.944;2023-09-12T17:16:33;21.70;1.00
14709;DHT22;7445;50.774;4.944;2023-09-12T17:18:59;21.70;1.00
14709;DHT22;7445;50.774;4.944;2023-09-12T17:21:26;21.60;1.00
14709;DHT22;7445;50.774;4.944;2023-09-12T17:23:51;21.60;1.00
14709;DHT22;7445;50.774;4.944;2023-09-12T17:26:17;21.50;99.90
14709;DHT22;7445;50.774;4.944;2023-09-12T17:28:43;21.40;1.00
14709;DHT22;7445;50.774;4.944;2023-09-12T17:31:08;21.40;1.00
14709;DHT22;7445;50.774;4.944;2023-09-12T17:33:34;21.40;1.00
14709;DHT22;7445;50.774;4.944;2023-09-12T17:36:00;21.40;1.00
14709;DHT22;7445;50.774;4.944;2023-09-12T17:38:25;21.40;1.00
14709;DHT22;7445;50.774;4.944;2023-09-12T17:40:51;21.40;1.00
14709;DHT22;7445;50.774;4.944;2023-09-12T17:43:16;21.40;1.00
14709;DHT22;7445;50.774;4.944;2023-09-12T17:45:42;21.30;1.00
14709;DHT22;7445;50.774;4.944;2023-09-12T17:48:08;21.40;1.00
14709;DHT22;7445;50.774;4.944;2023-09-12T17:50:33;21.30;99.90
14709;DHT22;7445;50.774;4.944;2023-09-12T17:52:59;21.30;1.00
14709;DHT22;7445;50.774;4.944;2023-09-12T17:55:26;21.10;99.90
14709;DHT22;7445;50.774;4.944;2023-09-12T17:57:51;21.00;99.90
14709;DHT22;7445;50.774;4.944;2023-09-12T18:00:17;20.90;1.00
14709;DHT22;7445;50.774;4.944;2023-09-12T18:02:43;21.00;1.00
14709;DHT22;7445;50.774;4.944;2023-09-12T18:05:09;21.00;1.00
14709;DHT22;7445;50.774;4.944;2023-09-12T18:07:36;21.10;1.00
14709;DHT22;7445;50.774;4.944;2023-09-12T18:10:05;21.10;1.00
14709;DHT22;7445;50.774;4.944;2023-09-12T18:12:32;21.10;1.00
14709;DHT22;7445;50.774;4.944;2023-09-12T18:14:57;21.00;1.00
14709;DHT22;7445;50.774;4.944;2023-09-12T18:17:23;20.90;1.00
14709;DHT22;7445;50.774;4.944;2023-09-12T18:19:49;20.90;1.00
14709;DHT22;7445;50.774;4.944;2023-09-12T18:22:16;20.90;99.90
14709;DHT22;7445;50.774;4.944;2023-09-12T18:24:41;20.90;1.00
14709;DHT22;7445;50.774;4.944;2023-09-12T18:27:07;21.00;1.00
14709;DHT22;7445;50.774;4.944;2023-09-12T18:29:32;21.10;99.90
14709;DHT22;7445;50.774;4.944;2023-09-12T18:31:58;21.00;11.90
14709;DHT22;7445;50.774;4.944;2023-09-12T18:34:24;21.00;1.00
14709;DHT22;7445;50.774;4.944;2023-09-12T18:36:51;21.00;1.00
14709;DHT22;7445;50.774;4.944;2023-09-12T18:39:17;21.00;47.20
14709;DHT22;7445;50.774;4.944;2023-09-12T18:41:43;21.00;99.90
14709;DHT22;7445;50.774;4.944;2023-09-12T18:44:09;21.00;99.90
14709;DHT22;7445;50.774;4.944;2023-09-12T18:46:35;21.00;99.90
14709;DHT22;7445;50.774;4.944;2023-09-12T18:49:01;21.10;99.90
14709;DHT22;7445;50.774;4.944;2023-09-12T18:51:26;21.10;99.90
14709;DHT22;7445;50.774;4.944;2023-09-12T18:53:52;21.10;1.00
14709;DHT22;7445;50.774;4.944;2023-09-12T18:56:18;21.00;90.00
14709;DHT22;7445;50.774;4.944;2023-09-12T18:58:44;21.00;99.90
14709;DHT22;7445;50.774;4.944;2023-09-12T19:01:10;21.00;99.90
14709;DHT22;7445;50.774;4.944;2023-09-12T19:03:36;21.00;99.90
14709;DHT22;7445;50.774;4.944;2023-09-12T19:06:05;21.00;99.90
14709;DHT22;7445;50.774;4.944;2023-09-12T19:08:32;21.00;99.90
14709;DHT22;7445;50.774;4.944;2023-09-12T19:11:03;21.00;99.90
14709;DHT22;7445;50.774;4.944;2023-09-12T19:13:29;21.00;95.50
14709;DHT22;7445;50.774;4.944;2023-09-12T19:15:54;21.00;99.90
14709;DHT22;7445;50.774;4.944;2023-09-12T19:18:20;21.00;99.90
14709;DHT22;7445;50.774;4.944;2023-09-12T19:20:46;21.00;99.90
14709;DHT22;7445;50.774;4.944;2023-09-12T19:23:11;21.00;99.90
14709;DHT22;7445;50.774;4.944;2023-09-12T19:25:37;21.00;99.90
14709;DHT22;7445;50.774;4.944;2023-09-12T19:28:06;20.90;99.90
14709;DHT22;7445;50.774;4.944;2023-09-12T19:30:33;20.90;99.90
14709;DHT22;7445;50.774;4.944;2023-09-12T19:32:59;20.90;99.90
14709;DHT22;7445;50.774;4.944;2023-09-12T19:35:26;20.90;99.90
14709;DHT22;7445;50.774;4.944;2023-09-12T19:37:52;20.80;99.90
14709;DHT22;7445;50.774;4.944;2023-09-12T19:40:18;20.80;1.00
14709;DHT22;7445;50.774;4.944;2023-09-12T19:42:45;20.80;1.00
14709;DHT22;7445;50.774;4.944;2023-09-12T19:45:10;20.80;1.00
14709;DHT22;7445;50.774;4.944;2023-09-12T19:47:36;20.80;1.00
14709;DHT22;7445;50.774;4.944;2023-09-12T19:50:03;20.80;1.00
14709;DHT22;7445;50.774;4.944;2023-09-12T19:52:29;20.80;1.00
14709;DHT22;7445;50.774;4.944;2023-09-12T19:54:55;20.70;1.00
14709;DHT22;7445;50.774;4.944;2023-09-12T19:57:21;20.80;1.00
14709;DHT22;7445;50.774;4.944;2023-09-12T19:59:50;20.80;1.00
14709;DHT22;7445;50.774;4.944;2023-09-12T20:02:15;20.80;1.00
14709;DHT22;7445;50.774;4.944;2023-09-12T20:04:42;20.80;1.00
14709;DHT22;7445;50.774;4.944;2023-09-12T20:07:08;20.80;1.00
14709;DHT22;7445;50.774;4.944;2023-09-12T20:09:33;20.80;1.00
14709;DHT22;7445;50.774;4.944;2023-09-12T20:11:59;20.80;1.00
14709;DHT22;7445;50.774;4.944;2023-09-12T20:14:25;20.80;1.00
14709;DHT22;7445;50.774;4.944;2023-09-12T20:16:50;20.80;1.00
14709;DHT22;7445;50.774;4.944;2023-09-12T20:19:16;20.80;1.00
14709;DHT22;7445;50.774;4.944;2023-09-12T20:21:42;20.70;1.00
14709;DHT22;7445;50.774;4.944;2023-09-12T20:24:09;20.70;1.00
14709;DHT22;7445;50.774;4.944;2023-09-12T20:26:35;20.70;1.00
14709;DHT22;7445;50.774;4.944;2023-09-12T20:29:01;20.70;1.00
14709;DHT22;7445;50.774;4.944;2023-09-12T20:31:27;20.70;1.00
14709;DHT22;7445;50.774;4.944;2023-09-12T20:33:53;20.70;1.00
14709;DHT22;7445;50.774;4.944;2023-09-12T20:36:22;20.70;1.00
14709;DHT22;7445;50.774;4.944;2023-09-12T20:38:50;20.70;1.00
14709;DHT22;7445;50.774;4.944;2023-09-12T20:41:16;20.60;1.00
14709;DHT22;7445;50.774;4.944;2023-09-12T20:43:43;20.60;1.00
14709;DHT22;7445;50.774;4.944;2023-09-12T20:46:08;20.50;1.00
14709;DHT22;7445;50.774;4.944;2023-09-12T20:48:36;20.50;1.00
14709;DHT22;7445;50.774;4.944;2023-09-12T20:51:10;20.50;1.00
14709;DHT22;7445;50.774;4.944;2023-09-12T20:53:38;20.50;1.00
14709;DHT22;7445;50.774;4.944;2023-09-12T20:56:04;20.40;1.00
14709;DHT22;7445;50.774;4.944;2023-09-12T20:58:31;20.40;1.00
14709;DHT22;7445;50.774;4.944;2023-09-12T21:00:57;20.30;1.00
14709;DHT22;7445;50.774;4.944;2023-09-12T21:03:24;20.30;1.00
14709;DHT22;7445;50.774;4.944;2023-09-12T21:05:50;20.30;10.60
14709;DHT22;7445;50.774;4.944;2023-09-12T21:08:15;20.30;1.00
14709;DHT22;7445;50.774;4.944;2023-09-12T21:10:41;20.20;1.00
14709;DHT22;7445;50.774;4.944;2023-09-12T21:13:09;20.20;25.40
14709;DHT22;7445;50.774;4.944;2023-09-12T21:15:35;20.20;41.30
14709;DHT22;7445;50.774;4.944;2023-09-12T21:18:00;20.20;99.90
14709;DHT22;7445;50.774;4.944;2023-09-12T21:20:28;20.30;99.90
14709;DHT22;7445;50.774;4.944;2023-09-12T21:22:54;20.30;99.90
14709;DHT22;7445;50.774;4.944;2023-09-12T21:25:19;20.30;27.70
14709;DHT22;7445;50.774;4.944;2023-09-12T21:27:45;20.20;47.70
14709;DHT22;7445;50.774;4.944;2023-09-12T21:30:11;20.20;99.90
14709;DHT22;7445;50.774;4.944;2023-09-12T21:32:37;20.30;99.90
14709;DHT22;7445;50.774;4.944;2023-09-12T21:35:09;20.30;99.90
14709;DHT22;7445;50.774;4.944;2023-09-12T21:37:37;20.30;99.90
14709;DHT22;7445;50.774;4.944;2023-09-12T21:40:04;20.20;99.90
14709;DHT22;7445;50.774;4.944;2023-09-12T21:42:30;20.20;99.90
14709;DHT22;7445;50.774;4.944;2023-09-12T21:44:55;20.20;99.90
14709;DHT22;7445;50.774;4.944;2023-09-12T21:47:21;20.20;99.90
14709;DHT22;7445;50.774;4.944;2023-09-12T21:49:48;20.20;99.90
14709;DHT22;7445;50.774;4.944;2023-09-12T21:52:14;20.20;99.90
14709;DHT22;7445;50.774;4.944;2023-09-12T21:54:39;20.30;99.90
14709;DHT22;7445;50.774;4.944;2023-09-12T21:57:05;20.30;99.90
